Time;durP1;ratioP1;P1;durP2;ratioP2;P2;SDS_P1;SDS_P2;PMS_P1;PMS_P2;Temp;Humidity;BMP_temperature;BMP_pressure;BME280_temperature;BME280_humidity;BME280_pressure;Samples;Min_cycle;Max_cycle;Signal;HPM_P1;HPM_P2
2023/06/19 00:02:17;;;;;;;;;;;;;;;21.92;53.19;96088.31;5104988;28;20259;-71
2023/06/19 00:04:43;;;;;;;;;;;;;;;21.91;53.18;96083.28;5088667;28;20250;-71
2023/06/19 00:07:09;;;;;;;;;;;;;;;21.86;53.39;96084.97;5105219;28;19956;-71
2023/06/19 00:09:35;;;;;;;;;;;;;;;21.83;53.21;96090.88;5088431;28;20023;-71
2023/06/19 00:12:01;;;;;;;;;;;;;;;21.79;53.34;96084.56;5104921;28;20348;-72
2023/06/19 00:14:27;;;;;;;;;;;;;;;21.77;53.09;96081.41;5088325;28;19967;-73
2023/06/19 00:16:53;;;;;;;;;;;;;;;21.75;53.91;96085.47;5105119;28;20234;-71
2023/06/19 00:19:18;;;;;;;;;;;;;;;21.70;53.64;96086.38;5105747;28;20155;-72
2023/06/19 00:21:45;;;;;;;;;;;;;;;21.64;54.06;96087.56;5104859;28;19954;-72
2023/06/19 00:24:11;;;;;;;;;;;;;;;21.58;53.88;96086.06;5106197;28;20008;-72
2023/06/19 00:26:37;;;;;;;;;;;;;;;21.54;54.23;96087.75;5104818;28;19960;-72
2023/06/19 00:29:03;;;;;;;;;;;;;;;21.50;54.67;96087.53;5106177;28;19958;-71
2023/06/19 00:31:29;;;;;;;;;;;;;;;21.50;54.33;96082.22;5105338;28;19965;-81
2023/06/19 00:33:55;;;;;;;;;;;;;;;21.49;54.83;96085.97;5104898;28;19984;-80
2023/06/19 00:36:21;;;;;;;;;;;;;;;21.50;54.49;96087.53;5088248;28;19972;-80
2023/06/19 00:38:47;;;;;;;;;;;;;;;21.52;53.96;96090.69;5105883;28;19953;-78
2023/06/19 00:41:15;;;;;;;;;;;;;;;21.54;54.75;96095.75;5105570;28;19951;-80
2023/06/19 00:43:40;;;;;;;;;;;;;;;21.55;54.51;96092.00;5105540;28;20147;-81
2023/06/19 00:46:06;;;;;;;;;;;;;;;21.55;55.93;96092.78;5105850;28;19948;-72
2023/06/19 00:48:33;;;;;;;;;;;;;;;21.57;54.46;96098.63;5104410;28;19980;-74
2023/06/19 00:51:00;;;;;;;;;;;;;;;21.58;54.29;96102.88;5105618;28;19958;-71
2023/06/19 00:53:25;;;;;;;;;;;;;;;21.61;54.68;96110.28;5105714;28;19960;-71
2023/06/19 00:55:52;;;;;;;;;;;;;;;21.63;54.61;96118.78;5105118;28;19968;-70
2023/06/19 00:58:21;;;;;;;;;;;;;;;21.64;55.13;96151.59;5104062;28;19973;-71
2023/06/19 01:00:47;;;;;;;;;;;;;;;21.60;55.82;96166.63;5105665;28;19945;-71
2023/06/19 01:03:14;;;;;;;;;;;;;;;21.57;54.99;96164.56;5104459;28;19957;-71
2023/06/19 01:05:39;;;;;;;;;;;;;;;21.53;54.94;96151.00;5105625;28;19952;-72
2023/06/19 01:08:24;;;;;;;;;;;;;;;21.52;54.81;96153.97;5103829;28;19959;-71
2023/06/19 01:10:51;;;;;;;;;;;;;;;21.51;53.59;96166.50;5105340;28;19961;-72
2023/06/19 01:13:26;;;;;;;;;;;;;;;21.49;53.80;96169.47;5105066;28;20255;-71
2023/06/19 01:15:52;;;;;;;;;;;;;;;21.46;54.17;96180.75;5105203;28;19960;-71
2023/06/19 01:18:18;;;;;;;;;;;;;;;21.48;54.59;96185.75;5105896;28;19957;-72
2023/06/19 01:20:44;;;;;;;;;;;;;;;21.47;54.48;96184.19;5103828;28;20117;-72
2023/06/19 01:23:11;;;;;;;;;;;;;;;21.46;55.83;96182.59;5105128;28;19956;-74
2023/06/19 01:25:37;;;;;;;;;;;;;;;21.44;55.96;96176.75;5105077;28;19938;-74
2023/06/19 01:28:05;;;;;;;;;;;;;;;21.43;55.54;96181.31;5105161;28;19964;-74
2023/06/19 01:30:32;;;;;;;;;;;;;;;21.40;57.28;96181.09;5105001;28;20241;-75
2023/06/19 01:32:57;;;;;;;;;;;;;;;21.35;55.88;96179.28;5103438;28;19963;-74
2023/06/19 01:35:26;;;;;;;;;;;;;;;21.32;59.34;96179.09;5103352;28;20037;-72
2023/06/19 01:37:53;;;;;;;;;;;;;;;21.27;58.44;96188.78;5103468;28;19958;-73
2023/06/19 01:40:21;;;;;;;;;;;;;;;21.24;60.04;96184.00;5104703;28;19960;-72
2023/06/19 01:42:47;;;;;;;;;;;;;;;21.18;58.87;96182.50;5104746;28;19959;-69
2023/06/19 01:45:13;;;;;;;;;;;;;;;21.13;60.49;96187.94;5104787;28;19961;-70
2023/06/19 01:47:39;;;;;;;;;;;;;;;21.11;60.77;96176.78;5104764;28;19963;-69
2023/06/19 01:50:05;;;;;;;;;;;;;;;21.07;60.20;96179.22;5104882;28;19956;-69
2023/06/19 01:52:31;;;;;;;;;;;;;;;21.05;60.94;96175.25;5103026;28;19951;-71
2023/06/19 01:54:57;;;;;;;;;;;;;;;21.03;60.16;96164.09;5104663;28;19985;-71
2023/06/19 01:57:23;;;;;;;;;;;;;;;21.01;61.52;96171.59;5104385;28;19949;-72
2023/06/19 01:59:49;;;;;;;;;;;;;;;20.99;59.81;96163.88;5104853;28;19959;-71
2023/06/19 02:02:15;;;;;;;;;;;;;;;20.98;61.57;96158.88;5103514;28;19981;-68
2023/06/19 02:04:40;;;;;;;;;;;;;;;20.96;60.30;96156.47;5104318;28;19952;-69
2023/06/19 02:07:06;;;;;;;;;;;;;;;20.97;60.70;96154.59;5104434;28;19975;-68
2023/06/19 02:09:32;;;;;;;;;;;;;;;20.98;60.41;96157.00;5089896;28;20028;-68
2023/06/19 02:11:58;;;;;;;;;;;;;;;21.00;60.53;96152.16;5108812;28;19951;-69
2023/06/19 02:14:24;;;;;;;;;;;;;;;21.03;61.42;96161.44;5109078;28;19967;-69
2023/06/19 02:16:50;;;;;;;;;;;;;;;21.03;60.15;96161.44;5108624;28;20401;-68
2023/06/19 02:19:16;;;;;;;;;;;;;;;21.03;61.09;96178.22;5108352;28;19960;-82
2023/06/19 02:21:41;;;;;;;;;;;;;;;21.03;60.02;96175.56;5107077;28;19999;-71
2023/06/19 02:24:07;;;;;;;;;;;;;;;21.02;60.46;96173.16;5107545;28;19946;-70
2023/06/19 02:26:33;;;;;;;;;;;;;;;21.02;60.55;96183.84;5107531;28;19956;-71
2023/06/19 02:28:59;;;;;;;;;;;;;;;21.01;61.12;96188.38;5108491;28;19973;-71
2023/06/19 02:31:25;;;;;;;;;;;;;;;20.98;63.32;96180.97;5107395;28;19973;-71
2023/06/19 02:33:51;;;;;;;;;;;;;;;20.96;65.07;96196.47;5108158;28;20230;-70
2023/06/19 02:36:19;;;;;;;;;;;;;;;20.95;65.57;96189.53;5108218;28;19971;-74
2023/06/19 02:38:48;;;;;;;;;;;;;;;20.94;66.17;96197.84;5107844;28;19960;-71
2023/06/19 02:41:15;;;;;;;;;;;;;;;20.90;67.12;96200.28;5108380;28;19955;-88
2023/06/19 02:43:42;;;;;;;;;;;;;;;20.89;67.11;96206.69;5106910;28;19958;-90
2023/06/19 02:46:08;;;;;;;;;;;;;;;20.87;67.21;96220.31;5106868;28;20228;-89
2023/06/19 02:48:34;;;;;;;;;;;;;;;20.84;69.10;96231.56;5107586;28;19960;-87
2023/06/19 02:51:00;;;;;;;;;;;;;;;20.78;67.94;96218.59;5108061;28;19951;-82
2023/06/19 02:53:25;;;;;;;;;;;;;;;20.73;68.54;96234.66;5107810;28;19970;-85
2023/06/19 02:55:51;;;;;;;;;;;;;;;20.71;68.82;96242.16;5107442;28;19972;-85
2023/06/19 02:58:17;;;;;;;;;;;;;;;20.70;68.56;96246.66;5106730;28;19952;-74
2023/06/19 03:00:44;;;;;;;;;;;;;;;20.69;68.55;96255.75;5108013;28;20277;-75
2023/06/19 03:03:10;;;;;;;;;;;;;;;20.70;68.90;96249.34;5107848;28;19953;-74
2023/06/19 03:05:35;;;;;;;;;;;;;;;20.70;68.74;96252.00;5107487;28;19974;-74
2023/06/19 03:08:01;;;;;;;;;;;;;;;20.70;68.09;96246.66;5107083;28;20148;-74
2023/06/19 03:10:27;;;;;;;;;;;;;;;20.68;69.87;96251.50;5107515;28;19984;-74
2023/06/19 03:12:53;;;;;;;;;;;;;;;20.64;69.68;96247.81;5107666;28;19988;-76
2023/06/19 03:15:19;;;;;;;;;;;;;;;20.59;69.80;96251.34;5107456;28;19969;-69
2023/06/19 03:17:45;;;;;;;;;;;;;;;20.54;69.38;96248.72;5107535;28;19953;-74
2023/06/19 03:20:13;;;;;;;;;;;;;;;20.44;70.08;96252.31;5105894;28;20009;-73
2023/06/19 03:22:42;;;;;;;;;;;;;;;20.36;71.49;96260.94;5107624;28;19943;-75
2023/06/19 03:25:08;;;;;;;;;;;;;;;20.34;71.32;96263.09;5106408;28;19960;-73
2023/06/19 03:27:34;;;;;;;;;;;;;;;20.31;69.57;96258.34;5107200;28;20186;-73
2023/06/19 03:30:00;;;;;;;;;;;;;;;20.30;70.60;96255.97;5107448;28;19968;-75
2023/06/19 03:32:26;;;;;;;;;;;;;;;20.30;69.12;96250.63;5107388;28;19992;-70
2023/06/19 03:34:52;;;;;;;;;;;;;;;20.28;69.46;96256.22;5105564;28;19966;-73
2023/06/19 03:37:18;;;;;;;;;;;;;;;20.24;71.37;96268.53;5106953;28;20008;-74
2023/06/19 03:39:44;;;;;;;;;;;;;;;20.18;70.65;96272.31;5107132;28;19960;-73
2023/06/19 03:42:10;;;;;;;;;;;;;;;20.13;71.69;96277.72;5107156;28;19950;-73
2023/06/19 03:44:35;;;;;;;;;;;;;;;20.08;72.05;96275.91;5107171;28;19959;-73
2023/06/19 03:47:01;;;;;;;;;;;;;;;20.06;71.42;96288.69;5107044;28;19948;-73
2023/06/19 03:49:27;;;;;;;;;;;;;;;20.03;72.39;96294.56;5105508;28;20205;-90
2023/06/19 03:51:54;;;;;;;;;;;;;;;19.99;72.47;96290.88;5107100;28;19959;-70
2023/06/19 03:54:20;;;;;;;;;;;;;;;19.98;73.79;96297.31;5107156;28;19969;-78
2023/06/19 03:56:46;;;;;;;;;;;;;;;19.95;75.02;96288.03;5088136;28;19968;-81
2023/06/19 03:59:11;;;;;;;;;;;;;;;19.91;75.40;96292.31;5106909;28;20222;-81
2023/06/19 04:01:37;;;;;;;;;;;;;;;19.91;74.91;96286.19;5106917;28;19951;-77
2023/06/19 04:04:03;;;;;;;;;;;;;;;19.91;76.33;96284.34;5106746;28;20184;-79
2023/06/19 04:06:29;;;;;;;;;;;;;;;19.90;75.47;96282.72;5106562;28;19954;-77
2023/06/19 04:08:55;;;;;;;;;;;;;;;19.89;75.24;96275.84;5106565;28;20210;-71
2023/06/19 04:11:21;;;;;;;;;;;;;;;19.90;75.77;96273.97;5105112;28;19953;-70
2023/06/19 04:13:47;;;;;;;;;;;;;;;19.85;75.12;96266.81;5105087;28;19974;-71
2023/06/19 04:16:12;;;;;;;;;;;;;;;19.79;74.40;96259.97;5106407;28;19960;-71
2023/06/19 04:18:38;;;;;;;;;;;;;;;19.77;76.17;96268.22;5105777;28;19960;-72
2023/06/19 04:21:04;;;;;;;;;;;;;;;19.73;78.13;96271.72;5106307;28;19942;-71
2023/06/19 04:23:30;;;;;;;;;;;;;;;19.70;76.92;96265.09;5106263;28;19958;-70
2023/06/19 04:25:56;;;;;;;;;;;;;;;19.71;77.36;96266.69;5105823;28;19960;-71
2023/06/19 04:28:22;;;;;;;;;;;;;;;19.72;76.55;96264.81;5106428;28;20022;-70
2023/06/19 04:30:47;;;;;;;;;;;;;;;19.71;77.18;96265.91;5104348;28;19958;-72
2023/06/19 04:33:13;;;;;;;;;;;;;;;19.72;79.12;96286.91;5104475;28;19965;-72
2023/06/19 04:35:42;;;;;;;;;;;;;;;19.71;78.42;96272.00;5105719;28;19987;-72
2023/06/19 04:38:09;;;;;;;;;;;;;;;19.70;77.75;96266.91;5105739;28;19961;-72
2023/06/19 04:40:35;;;;;;;;;;;;;;;19.70;77.56;96270.44;5105785;28;19954;-71
2023/06/19 04:43:02;;;;;;;;;;;;;;;19.69;78.02;96276.78;5106029;28;20113;-71
2023/06/19 04:45:28;;;;;;;;;;;;;;;19.67;78.62;96282.41;5105794;28;19954;-72
2023/06/19 04:47:54;;;;;;;;;;;;;;;19.65;77.55;96286.38;5104021;28;19956;-72
2023/06/19 04:50:20;;;;;;;;;;;;;;;19.60;77.56;96281.91;5104871;28;19951;-71
2023/06/19 04:52:47;;;;;;;;;;;;;;;19.60;77.09;96276.59;5105268;28;20244;-71
2023/06/19 04:55:13;;;;;;;;;;;;;;;19.64;77.78;96277.63;5105875;28;19961;-71
2023/06/19 04:57:39;;;;;;;;;;;;;;;19.71;77.71;96276.53;5105605;28;19960;-71
2023/06/19 05:00:06;;;;;;;;;;;;;;;19.74;78.42;96279.44;5104112;28;19954;-71
2023/06/19 05:02:33;;;;;;;;;;;;;;;19.79;77.82;96281.25;5104473;28;20212;-71
2023/06/19 05:05:02;;;;;;;;;;;;;;;19.83;78.06;96282.28;5105300;28;20142;-71
2023/06/19 05:07:31;;;;;;;;;;;;;;;19.91;77.96;96283.50;5105077;28;19975;-70
2023/06/19 05:09:57;;;;;;;;;;;;;;;19.96;80.39;96292.25;5103946;28;19956;-70
2023/06/19 05:12:23;;;;;;;;;;;;;;;19.98;78.69;96287.44;5104018;28;19982;-71
2023/06/19 05:14:49;;;;;;;;;;;;;;;20.00;79.17;96293.28;5105239;28;19956;-71
2023/06/19 05:17:15;;;;;;;;;;;;;;;20.00;79.85;96289.81;5104744;28;19963;-71
2023/06/19 05:19:41;;;;;;;;;;;;;;;20.01;78.79;96284.22;5105463;28;20256;-71
2023/06/19 05:22:07;;;;;;;;;;;;;;;20.05;79.20;96279.94;5104439;28;19957;-72
2023/06/19 05:24:33;;;;;;;;;;;;;;;20.12;78.99;96289.44;5105225;28;19997;-73
2023/06/19 05:26:59;;;;;;;;;;;;;;;20.15;79.87;96279.00;5103496;28;20244;-71
2023/06/19 05:29:25;;;;;;;;;;;;;;;20.19;78.77;96277.38;5104929;28;19959;-73
2023/06/19 05:31:51;;;;;;;;;;;;;;;20.18;79.04;96281.13;5105002;28;19956;-71
2023/06/19 05:34:17;;;;;;;;;;;;;;;20.16;78.34;96271.81;5104799;28;20038;-72
2023/06/19 05:36:46;;;;;;;;;;;;;;;20.13;77.50;96275.06;5104323;28;19967;-72
2023/06/19 05:39:12;;;;;;;;;;;;;;;20.16;79.50;96282.47;5103651;28;19980;-72
2023/06/19 05:41:38;;;;;;;;;;;;;;;20.12;79.60;96286.78;5103372;28;20015;-71
2023/06/19 05:44:04;;;;;;;;;;;;;;;20.07;81.22;96283.09;5104268;28;19961;-85
2023/06/19 05:46:29;;;;;;;;;;;;;;;20.06;80.41;96289.50;5103478;28;19953;-81
2023/06/19 05:48:55;;;;;;;;;;;;;;;20.03;80.11;96292.72;5104857;28;19942;-82
2023/06/19 05:51:21;;;;;;;;;;;;;;;20.00;79.54;96287.94;5104854;28;19956;-82
2023/06/19 05:53:49;;;;;;;;;;;;;;;19.99;79.86;96285.56;5103209;28;19957;-83
2023/06/19 05:56:15;;;;;;;;;;;;;;;20.01;79.37;96288.75;5104448;28;20150;-81
2023/06/19 05:58:41;;;;;;;;;;;;;;;20.06;81.15;96294.81;5103672;28;19948;-70
2023/06/19 06:01:07;;;;;;;;;;;;;;;20.08;80.33;96294.53;5104437;28;20306;-78
2023/06/19 06:03:33;;;;;;;;;;;;;;;20.06;80.13;96305.47;5103564;28;19953;-73
2023/06/19 06:06:02;;;;;;;;;;;;;;;20.08;80.79;96310.50;5103393;28;20013;-71
2023/06/19 06:08:29;;;;;;;;;;;;;;;20.09;83.91;96317.41;5104506;28;19949;-70
2023/06/19 06:10:55;;;;;;;;;;;;;;;20.09;83.63;96320.06;5104682;28;20148;-71
2023/06/19 06:13:21;;;;;;;;;;;;;;;20.07;83.97;96325.69;5103097;28;19964;-70
2023/06/19 06:15:47;;;;;;;;;;;;;;;20.08;83.19;96327.28;5104924;28;19972;-71
2023/06/19 06:18:12;;;;;;;;;;;;;;;20.08;83.06;96324.59;5104797;28;20153;-71
2023/06/19 06:20:38;;;;;;;;;;;;;;;20.10;82.73;96328.88;5104476;28;19960;-84
2023/06/19 06:23:04;;;;;;;;;;;;;;;20.16;83.06;96328.53;5103339;28;20004;-88
2023/06/19 06:25:30;;;;;;;;;;;;;;;20.22;82.49;96324.75;5104508;28;19964;-80
2023/06/19 06:27:56;;;;;;;;;;;;;;;20.24;83.41;96321.78;5104516;28;20242;-77
2023/06/19 06:30:23;;;;;;;;;;;;;;;20.23;82.24;96317.53;5104473;28;20273;-80
2023/06/19 06:32:49;;;;;;;;;;;;;;;20.20;81.69;96323.41;5104107;28;19959;-78
2023/06/19 06:35:15;;;;;;;;;;;;;;;20.21;81.51;96319.69;5104071;28;19975;-70
2023/06/19 06:37:41;;;;;;;;;;;;;;;20.19;82.82;96325.28;5104258;28;19955;-77
2023/06/19 06:40:11;;;;;;;;;;;;;;;20.21;81.81;96315.16;5086126;28;19961;-81
2023/06/19 06:42:37;;;;;;;;;;;;;;;20.22;82.57;96323.94;5102993;28;19962;-79
2023/06/19 06:45:05;;;;;;;;;;;;;;;20.24;82.94;96324.44;5102873;28;19959;-72
2023/06/19 06:47:30;;;;;;;;;;;;;;;20.28;82.21;96330.78;5103975;28;19945;-71
2023/06/19 06:49:56;;;;;;;;;;;;;;;20.34;84.00;96331.53;5102818;28;19986;-72
2023/06/19 06:52:22;;;;;;;;;;;;;;;20.39;83.49;96332.28;5104599;28;19989;-71
2023/06/19 06:54:48;;;;;;;;;;;;;;;20.44;82.50;96334.09;5106233;28;20011;-70
2023/06/19 06:57:14;;;;;;;;;;;;;;;20.46;83.12;96323.94;5106691;28;20009;-72
2023/06/19 06:59:40;;;;;;;;;;;;;;;20.50;81.90;96327.63;5107833;28;19963;-71
2023/06/19 07:02:06;;;;;;;;;;;;;;;20.57;82.18;96325.41;5107650;28;20028;-71
2023/06/19 07:04:32;;;;;;;;;;;;;;;20.65;82.17;96338.13;5107876;28;20029;-72
2023/06/19 07:06:58;;;;;;;;;;;;;;;20.82;81.28;96335.00;5107294;28;19955;-72
2023/06/19 07:09:23;;;;;;;;;;;;;;;20.99;81.39;96339.84;5107764;28;19957;-71
2023/06/19 07:11:50;;;;;;;;;;;;;;;21.44;78.07;96323.50;5107765;28;19956;-73
2023/06/19 07:14:17;;;;;;;;;;;;;;;21.92;76.31;96311.78;5107597;28;20265;-69
2023/06/19 07:16:45;;;;;;;;;;;;;;;22.36;74.97;96315.81;5106405;28;19962;-75
2023/06/19 07:19:11;;;;;;;;;;;;;;;22.74;73.37;96311.06;5107770;28;19967;-75
2023/06/19 07:21:38;;;;;;;;;;;;;;;22.99;71.58;96308.91;5106153;28;19952;-75
2023/06/19 07:24:04;;;;;;;;;;;;;;;23.23;70.68;96301.47;5107492;28;19967;-72
2023/06/19 07:26:30;;;;;;;;;;;;;;;23.25;69.30;96301.16;5107125;28;20245;-74
2023/06/19 07:28:56;;;;;;;;;;;;;;;23.10;70.52;96313.78;5107304;28;19952;-74
2023/06/19 07:31:22;;;;;;;;;;;;;;;23.19;68.72;96305.81;5107075;28;20002;-68
2023/06/19 07:33:48;;;;;;;;;;;;;;;23.23;68.52;96312.16;5107318;28;19960;-70
2023/06/19 07:36:15;;;;;;;;;;;;;;;23.48;66.45;96296.59;5106625;28;19972;-69
2023/06/19 07:38:42;;;;;;;;;;;;;;;23.44;66.47;96299.09;5107109;28;19961;-70
2023/06/19 07:41:09;;;;;;;;;;;;;;;23.29;67.21;96310.94;5107175;28;19951;-70
2023/06/19 07:43:36;;;;;;;;;;;;;;;23.23;68.21;96319.41;5107003;28;19956;-70
2023/06/19 07:46:02;;;;;;;;;;;;;;;23.52;68.67;96324.34;5106413;28;19946;-70
2023/06/19 07:48:27;;;;;;;;;;;;;;;23.87;67.95;96311.97;5106462;28;19963;-70
2023/06/19 07:50:53;;;;;;;;;;;;;;;24.22;65.74;96298.75;5105868;28;19976;-70
2023/06/19 07:53:19;;;;;;;;;;;;;;;24.55;64.22;96286.91;5106485;28;19956;-70
2023/06/19 07:55:45;;;;;;;;;;;;;;;24.78;62.84;96284.91;5106410;28;19963;-70
2023/06/19 07:58:11;;;;;;;;;;;;;;;24.95;62.59;96292.19;5106492;28;19959;-70
2023/06/19 08:00:37;;;;;;;;;;;;;;;24.88;61.87;96287.28;5105191;28;20024;-71
2023/06/19 08:03:04;;;;;;;;;;;;;;;24.81;61.54;96293.13;5106555;28;19958;-70
2023/06/19 08:05:30;;;;;;;;;;;;;;;24.82;62.18;96289.34;5105491;28;19950;-69
2023/06/19 08:07:56;;;;;;;;;;;;;;;24.82;62.41;96288.53;5106659;28;20143;-69
2023/06/19 08:10:22;;;;;;;;;;;;;;;24.70;63.04;96298.00;5105824;28;19959;-73
2023/06/19 08:12:48;;;;;;;;;;;;;;;24.60;62.34;96284.09;5106412;28;19964;-75
2023/06/19 08:15:14;;;;;;;;;;;;;;;24.43;62.16;96288.28;5105417;28;19942;-72
2023/06/19 08:17:40;;;;;;;;;;;;;;;24.33;63.18;96299.28;5106373;28;19964;-72
2023/06/19 08:20:07;;;;;;;;;;;;;;;24.20;63.58;96294.81;5106011;28;19965;-73
2023/06/19 08:22:33;;;;;;;;;;;;;;;24.15;64.05;96294.94;5106350;28;19949;-73
2023/06/19 08:24:58;;;;;;;;;;;;;;;24.08;63.97;96290.03;5106414;28;19957;-72
2023/06/19 08:27:24;;;;;;;;;;;;;;;23.99;64.09;96290.00;5106741;28;20150;-74
2023/06/19 08:29:50;;;;;;;;;;;;;;;23.88;64.71;96299.41;5105921;28;19963;-69
2023/06/19 08:32:16;;;;;;;;;;;;;;;23.81;64.70;96293.69;5106096;28;19957;-69
2023/06/19 08:34:42;;;;;;;;;;;;;;;23.79;64.71;96293.19;5105903;28;19957;-69
2023/06/19 08:37:08;;;;;;;;;;;;;;;23.81;65.04;96293.69;5105878;28;20160;-69
2023/06/19 08:39:37;;;;;;;;;;;;;;;23.79;64.40;96294.00;5106105;28;19978;-69
2023/06/19 08:42:04;;;;;;;;;;;;;;;23.84;64.63;96299.22;5106205;28;19961;-70
2023/06/19 08:44:30;;;;;;;;;;;;;;;23.93;63.93;96285.09;5105920;28;19946;-70
2023/06/19 08:46:57;;;;;;;;;;;;;;;24.03;64.21;96285.59;5106224;28;19964;-77
2023/06/19 08:49:23;;;;;;;;;;;;;;;24.15;64.22;96289.56;5105600;28;19979;-69
2023/06/19 08:51:49;;;;;;;;;;;;;;;24.29;64.90;96290.28;5105008;28;19954;-69
2023/06/19 08:54:15;;;;;;;;;;;;;;;24.47;63.70;96281.19;5106064;28;20132;-68
2023/06/19 08:56:41;;;;;;;;;;;;;;;24.86;62.66;96268.84;5105154;28;20041;-69
2023/06/19 08:59:07;;;;;;;;;;;;;;;25.27;61.94;96259.53;5087054;28;19959;-68
2023/06/19 09:01:33;;;;;;;;;;;;;;;25.57;58.89;96245.44;5105382;28;19963;-69
2023/06/19 09:03:59;;;;;;;;;;;;;;;25.75;58.44;96255.03;5105436;28;19991;-70
2023/06/19 09:06:25;;;;;;;;;;;;;;;25.97;58.15;96248.66;5105052;28;19959;-70
2023/06/19 09:08:57;;;;;;;;;;;;;;;26.22;58.42;96255.03;5105450;28;19961;-70
2023/06/19 09:11:23;;;;;;;;;;;;;;;26.47;56.83;96249.88;5105409;28;19977;-71
2023/06/19 09:13:56;;;;;;;;;;;;;;;26.52;55.18;96249.66;5105871;28;20244;-71
2023/06/19 09:16:23;;;;;;;;;;;;;;;26.63;56.42;96255.50;5105304;28;19965;-71
2023/06/19 09:18:49;;;;;;;;;;;;;;;26.73;54.37;96250.53;5105026;28;19956;-71
2023/06/19 09:21:16;;;;;;;;;;;;;;;26.82;54.37;96252.38;5105446;28;19958;-70
2023/06/19 09:23:42;;;;;;;;;;;;;;;26.88;54.23;96251.84;5104865;28;20135;-78
2023/06/19 09:26:08;;;;;;;;;;;;;;;27.02;53.76;96253.47;5104871;28;19955;-70
2023/06/19 09:28:33;;;;;;;;;;;;;;;27.05;53.03;96248.22;5105183;28;20164;-69
2023/06/19 09:31:02;;;;;;;;;;;;;;;27.11;53.20;96246.91;5105002;28;19951;-70
2023/06/19 09:33:29;;;;;;;;;;;;;;;27.20;52.99;96246.84;5104996;28;19950;-70
2023/06/19 09:35:56;;;;;;;;;;;;;;;27.35;51.70;96245.47;5104930;28;20347;-70
2023/06/19 09:38:26;;;;;;;;;;;;;;;27.33;52.66;96250.41;5104956;28;19981;-71
2023/06/19 09:40:53;;;;;;;;;;;;;;;27.50;52.60;96258.28;5103967;28;19963;-69
2023/06/19 09:43:22;;;;;;;;;;;;;;;27.67;51.77;96243.88;5105182;28;19947;-70
2023/06/19 09:45:49;;;;;;;;;;;;;;;27.82;53.64;96247.03;5104287;28;19961;-69
2023/06/19 09:48:19;;;;;;;;;;;;;;;27.82;50.04;96234.34;5103821;28;20464;-70
2023/06/19 09:50:48;;;;;;;;;;;;;;;27.93;49.39;96230.13;5104813;28;19950;-70
2023/06/19 09:53:14;;;;;;;;;;;;;;;28.09;48.62;96224.06;5104687;28;19957;-70
2023/06/19 09:55:40;;;;;;;;;;;;;;;28.22;50.48;96233.72;5104548;28;19959;-70
2023/06/19 09:58:06;;;;;;;;;;;;;;;28.40;48.91;96220.03;5104756;28;19964;-70
2023/06/19 10:00:32;;;;;;;;;;;;;;;28.58;48.12;96217.88;5104688;28;19955;-70
2023/06/19 10:03:00;;;;;;;;;;;;;;;28.72;47.76;96223.72;5104986;28;19957;-70
2023/06/19 10:05:30;;;;;;;;;;;;;;;28.89;46.91;96219.94;5104141;28;20133;-71
2023/06/19 10:07:59;;;;;;;;;;;;;;;29.06;47.78;96222.38;5104570;28;19960;-71
2023/06/19 10:10:27;;;;;;;;;;;;;;;29.14;46.67;96223.38;5104730;28;20139;-72
2023/06/19 10:12:55;;;;;;;;;;;;;;;29.14;44.64;96215.28;5104250;28;19963;-72
2023/06/19 10:15:22;;;;;;;;;;;;;;;29.19;45.27;96216.94;5104216;28;20250;-71
2023/06/19 10:17:49;;;;;;;;;;;;;;;29.23;43.80;96221.34;5104206;28;19965;-83
2023/06/19 10:20:37;;;;;;;;;;;;;;;29.35;45.56;96225.88;5086104;28;19960;-70
2023/06/19 10:23:07;;;;;;;;;;;;;;;29.47;44.79;96227.75;5104521;28;19955;-70
2023/06/19 10:25:38;;;;;;;;;;;;;;;29.63;44.73;96216.94;5104392;28;20224;-70
2023/06/19 10:28:07;;;;;;;;;;;;;;;29.69;43.14;96213.66;5102778;28;19949;-71
2023/06/19 10:30:36;;;;;;;;;;;;;;;29.79;43.73;96223.19;5107921;28;19954;-70
2023/06/19 10:33:03;;;;;;;;;;;;;;;29.92;43.66;96221.97;5089989;28;19965;-69
2023/06/19 10:35:28;;;;;;;;;;;;;;;29.99;41.27;96215.97;5108472;28;19957;-83
2023/06/19 10:37:54;;;;;;;;;;;;;;;30.18;43.50;96225.28;5107933;28;19963;-83
2023/06/19 10:40:20;;;;;;;;;;;;;;;30.39;43.00;96220.38;5107103;28;19989;-83
2023/06/19 10:42:46;;;;;;;;;;;;;;;30.47;41.18;96213.19;5108018;28;20346;-83
2023/06/19 10:45:17;;;;;;;;;;;;;;;30.46;41.79;96223.25;5108215;28;19962;-83
2023/06/19 10:47:44;;;;;;;;;;;;;;;30.58;41.17;96210.75;5107717;28;19952;-83
2023/06/19 10:50:13;;;;;;;;;;;;;;;30.63;41.06;96210.47;5108117;28;19955;-83
2023/06/19 10:52:40;;;;;;;;;;;;;;;30.59;40.09;96210.38;5107934;28;20265;-71
2023/06/19 10:55:07;;;;;;;;;;;;;;;30.49;39.11;96219.03;5108019;28;20151;-70
2023/06/19 10:57:33;;;;;;;;;;;;;;;30.43;41.30;96223.97;5107872;28;19966;-72
2023/06/19 10:59:59;;;;;;;;;;;;;;;30.45;39.62;96218.19;5108076;28;19958;-71
2023/06/19 11:02:25;;;;;;;;;;;;;;;30.53;39.79;96219.91;5107469;28;19986;-72
2023/06/19 11:04:52;;;;;;;;;;;;;;;30.67;39.07;96216.72;5107421;28;19958;-71
2023/06/19 11:07:17;;;;;;;;;;;;;;;30.81;40.28;96221.69;5107908;28;19960;-71
2023/06/19 11:09:43;;;;;;;;;;;;;;;30.79;39.28;96211.19;5106195;28;19949;-71
2023/06/19 11:12:10;;;;;;;;;;;;;;;30.60;39.01;96214.66;5106304;28;19956;-82
2023/06/19 11:14:39;;;;;;;;;;;;;;;30.35;38.57;96214.13;5106339;28;19956;-71
2023/06/19 11:17:05;;;;;;;;;;;;;;;30.19;39.97;96221.44;5107456;28;19969;-72
2023/06/19 11:19:33;;;;;;;;;;;;;;;30.15;40.88;96214.03;5107606;28;19959;-72
2023/06/19 11:22:03;;;;;;;;;;;;;;;30.12;39.68;96200.41;5106664;28;19952;-71
2023/06/19 11:24:29;;;;;;;;;;;;;;;30.22;40.46;96207.19;5106939;28;20134;-72
2023/06/19 11:26:56;;;;;;;;;;;;;;;30.29;39.43;96204.69;5107427;28;19950;-71
2023/06/19 11:29:23;;;;;;;;;;;;;;;30.45;38.31;96199.22;5107538;28;20274;-80
2023/06/19 11:31:50;;;;;;;;;;;;;;;30.61;38.04;96205.41;5106918;28;19966;-81
2023/06/19 11:34:16;;;;;;;;;;;;;;;30.61;37.46;96199.97;5107023;28;19967;-74
2023/06/19 11:36:43;;;;;;;;;;;;;;;30.59;38.17;96199.56;5106952;28;20236;-74
2023/06/19 11:39:15;;;;;;;;;;;;;;;30.60;38.15;96203.84;5105955;28;19965;-75
2023/06/19 11:41:43;;;;;;;;;;;;;;;30.60;38.33;96201.13;5088432;28;19967;-74
2023/06/19 11:44:09;;;;;;;;;;;;;;;30.59;35.43;96196.84;5106774;28;19964;-74
2023/06/19 11:46:35;;;;;;;;;;;;;;;30.60;39.08;96195.72;5106944;28;19952;-72
2023/06/19 11:49:08;;;;;;;;;;;;;;;30.73;40.79;96205.28;5106428;28;19973;-71
2023/06/19 11:51:35;;;;;;;;;;;;;;;30.98;41.12;96213.16;5106747;28;20256;-70
2023/06/19 11:54:01;;;;;;;;;;;;;;;31.24;39.89;96198.16;5106531;28;20134;-69
2023/06/19 11:56:27;;;;;;;;;;;;;;;31.40;39.77;96204.28;5106438;28;20257;-70
2023/06/19 11:58:53;;;;;;;;;;;;;;;31.59;39.53;96203.50;5106313;28;19956;-71
2023/06/19 12:01:19;;;;;;;;;;;;;;;31.67;38.81;96197.06;5106911;28;20128;-71
2023/06/19 12:03:44;;;;;;;;;;;;;;;31.88;38.28;96193.91;5106560;28;19960;-71
2023/06/19 12:06:10;;;;;;;;;;;;;;;32.12;37.77;96192.75;5106699;28;19960;-68
2023/06/19 12:08:37;;;;;;;;;;;;;;;32.33;38.23;96184.13;5106130;28;19955;-70
2023/06/19 12:11:07;;;;;;;;;;;;;;;32.40;37.21;96185.38;5106616;28;20221;-85
2023/06/19 12:13:33;;;;;;;;;;;;;;;32.30;36.93;96184.13;5106590;28;19968;-83
2023/06/19 12:15:59;;;;;;;;;;;;;;;32.12;38.34;96197.41;5106522;28;19944;-87
2023/06/19 12:18:25;;;;;;;;;;;;;;;31.95;37.91;96194.00;5106492;28;19972;-85
2023/06/19 12:20:51;;;;;;;;;;;;;;;31.91;37.80;96190.47;5106561;28;19956;-85
2023/06/19 12:23:17;;;;;;;;;;;;;;;31.58;36.82;96188.34;5106651;28;19960;-85
2023/06/19 12:25:43;;;;;;;;;;;;;;;31.21;37.88;96191.56;5105919;28;19991;-70
2023/06/19 12:28:09;;;;;;;;;;;;;;;30.88;37.88;96192.84;5106053;28;19957;-70
2023/06/19 12:30:36;;;;;;;;;;;;;;;30.60;39.22;96193.00;5105017;28;19962;-70
2023/06/19 12:33:04;;;;;;;;;;;;;;;30.50;39.62;96193.56;5104605;28;20154;-69
2023/06/19 12:35:29;;;;;;;;;;;;;;;30.46;39.96;96184.59;5106125;28;19952;-70
2023/06/19 12:37:55;;;;;;;;;;;;;;;30.39;40.51;96187.91;5105982;28;20249;-70
2023/06/19 12:40:21;;;;;;;;;;;;;;;30.44;39.90;96181.44;5106097;28;20198;-69
2023/06/19 12:42:49;;;;;;;;;;;;;;;30.49;40.09;96187.38;5105999;28;20008;-70
2023/06/19 12:45:15;;;;;;;;;;;;;;;30.49;40.97;96190.09;5106108;28;19940;-82